createdAt,value
2019-06-26T00:01:51.215Z,74.15
2019-06-26T00:04:17.881Z,83.62
2019-06-26T00:06:44.192Z,73.45
2019-06-26T00:09:11.162Z,76.62
2019-06-26T00:11:37.746Z,78.10
2019-06-26T00:14:04.389Z,70.45
2019-06-26T00:16:30.655Z,71.02
2019-06-26T00:18:57.268Z,66.10
2019-06-26T00:21:23.939Z,65.80
2019-06-26T00:23:50.259Z,70.45
2019-06-26T00:26:16.795Z,69.35
2019-06-26T00:28:43.514Z,66.00
2019-06-26T00:31:10.123Z,73.10
2019-06-26T00:33:36.779Z,73.83
2019-06-26T00:36:03.274Z,77.05
2019-06-26T00:38:29.580Z,75.12
2019-06-26T00:40:56.194Z,68.15
2019-06-26T00:43:22.878Z,74.95
2019-06-26T00:45:49.482Z,79.00
2019-06-26T00:48:16.105Z,76.20
2019-06-26T00:50:42.809Z,74.15
2019-06-26T00:53:09.376Z,83.90
2019-06-26T00:55:36.111Z,76.47
2019-06-26T00:58:02.924Z,80.10
2019-06-26T01:00:33.179Z,78.72
2019-06-26T01:02:59.634Z,76.57
2019-06-26T01:05:26.267Z,82.70
2019-06-26T01:07:52.938Z,72.95
2019-06-26T01:10:20.000Z,83.58
2019-06-26T01:12:46.269Z,81.10
2019-06-26T01:15:13.327Z,75.55
2019-06-26T01:17:40.024Z,75.40
2019-06-26T01:20:06.968Z,85.03
2019-06-26T01:22:33.656Z,74.60
2019-06-26T01:25:00.243Z,74.50
2019-06-26T01:27:26.933Z,74.55
2019-06-26T01:29:53.358Z,73.07
2019-06-26T01:32:20.936Z,69.97
2019-06-26T01:34:47.623Z,71.60
2019-06-26T01:37:14.224Z,82.90
2019-06-26T01:39:40.592Z,80.17
2019-06-26T01:42:06.952Z,73.55
2019-06-26T01:44:39.324Z,72.67
2019-06-26T01:47:05.813Z,72.95
2019-06-26T01:49:32.435Z,71.30
2019-06-26T01:51:59.053Z,72.95
2019-06-26T01:54:26.451Z,65.55
2019-06-26T01:56:53.159Z,71.65
2019-06-26T01:59:19.824Z,64.40
2019-06-26T02:01:46.077Z,69.80
2019-06-26T02:04:15.503Z,63.58
2019-06-26T02:06:40.429Z,64.30
2019-06-26T02:09:06.804Z,60.00
2019-06-26T02:11:33.155Z,58.42
2019-06-26T02:13:59.400Z,61.23
2019-06-26T02:16:25.649Z,63.63
2019-06-26T02:18:53.829Z,67.80
2019-06-26T02:21:20.068Z,75.25
2019-06-26T02:23:46.428Z,70.37
2019-06-26T02:26:12.659Z,80.38
2019-06-26T02:28:38.939Z,76.22
2019-06-26T02:31:05.312Z,79.15
2019-06-26T02:33:31.581Z,78.30
2019-06-26T02:35:57.828Z,88.97
2019-06-26T02:38:24.102Z,92.70
2019-06-26T02:40:50.362Z,78.90
2019-06-26T02:43:16.680Z,91.30
2019-06-26T02:45:42.959Z,85.05
2019-06-26T02:48:09.213Z,97.02
2019-06-26T02:50:35.589Z,92.20
2019-06-26T02:53:02.003Z,98.27
2019-06-26T02:55:28.304Z,89.35
2019-06-26T02:57:54.650Z,94.90
2019-06-26T03:00:21.008Z,93.10
2019-06-26T03:02:47.263Z,98.40
2019-06-26T03:05:13.721Z,94.77
2019-06-26T03:07:39.991Z,93.65
2019-06-26T03:10:07.560Z,95.17
2019-06-26T03:12:35.552Z,103.05
2019-06-26T03:15:08.671Z,98.72
2019-06-26T03:17:32.528Z,106.87
2019-06-26T03:19:59.186Z,98.65
2019-06-26T03:22:26.640Z,99.52
2019-06-26T03:24:53.319Z,94.47
2019-06-26T03:27:19.915Z,89.15
2019-06-26T03:29:46.859Z,95.07
2019-06-26T03:32:13.210Z,92.08
2019-06-26T03:34:39.824Z,112.22
2019-06-26T03:37:06.496Z,102.47
2019-06-26T03:39:33.095Z,105.47
2019-06-26T03:41:59.757Z,108.87
2019-06-26T03:44:26.362Z,106.07
2019-06-26T03:46:53.008Z,104.30
2019-06-26T03:49:19.672Z,104.63
2019-06-26T03:51:46.296Z,97.57
2019-06-26T03:54:12.955Z,109.55
2019-06-26T03:56:39.585Z,115.90
2019-06-26T03:59:06.235Z,109.83
2019-06-26T04:01:32.845Z,111.83
2019-06-26T04:03:59.204Z,117.35
2019-06-26T04:06:25.709Z,118.08
2019-06-26T04:08:52.455Z,121.95
2019-06-26T04:11:19.152Z,125.15
2019-06-26T04:13:45.371Z,110.10
2019-06-26T04:16:11.935Z,107.95
2019-06-26T04:18:38.494Z,111.55
2019-06-26T04:21:05.175Z,117.50
2019-06-26T04:23:31.770Z,112.50
2019-06-26T04:25:58.409Z,93.52
2019-06-26T04:28:25.079Z,104.80
2019-06-26T04:30:51.724Z,103.00
2019-06-26T04:33:18.362Z,113.52
2019-06-26T04:35:44.953Z,108.92
2019-06-26T04:38:11.645Z,92.60
2019-06-26T04:40:38.393Z,102.50
2019-06-26T04:43:04.866Z,96.40
2019-06-26T04:45:31.547Z,84.20
2019-06-26T04:47:58.153Z,82.22
2019-06-26T04:50:25.093Z,83.05
2019-06-26T04:52:51.619Z,82.57
2019-06-26T04:55:18.095Z,81.57
2019-06-26T04:57:44.835Z,69.15
2019-06-26T05:00:14.482Z,84.20
2019-06-26T05:05:08.237Z,76.87
2019-06-26T05:07:34.638Z,76.65
2019-06-26T05:10:01.181Z,73.45
2019-06-26T05:12:28.282Z,79.10
2019-06-26T05:14:54.622Z,81.78
2019-06-26T05:17:21.137Z,77.58
2019-06-26T05:19:47.803Z,80.72
2019-06-26T05:22:14.535Z,89.97
2019-06-26T05:24:41.151Z,71.92
2019-06-26T05:27:07.795Z,79.05
2019-06-26T05:29:34.288Z,73.57
2019-06-26T05:32:00.928Z,72.67
2019-06-26T05:34:27.731Z,75.62
2019-06-26T05:36:54.213Z,81.37
2019-06-26T05:39:20.916Z,76.28
2019-06-26T05:41:47.487Z,82.33
2019-06-26T05:44:13.721Z,82.88
2019-06-26T05:46:41.752Z,89.35
2019-06-26T05:49:08.568Z,95.83
2019-06-26T05:51:35.116Z,92.57
2019-06-26T05:54:01.759Z,90.80
2019-06-26T05:56:28.352Z,100.65
2019-06-26T05:58:54.814Z,91.90
2019-06-26T06:01:21.619Z,92.40
2019-06-26T06:03:51.756Z,88.55
2019-06-26T06:06:18.598Z,94.92
2019-06-26T06:08:45.547Z,87.40
2019-06-26T06:11:12.371Z,80.90
2019-06-26T06:13:39.050Z,81.70
2019-06-26T06:16:06.517Z,80.83
2019-06-26T06:18:34.262Z,83.45
2019-06-26T06:21:02.815Z,93.92
2019-06-26T06:23:29.348Z,93.22
2019-06-26T06:25:55.739Z,84.25
2019-06-26T06:28:23.965Z,83.27
2019-06-26T06:30:51.757Z,89.03
2019-06-26T06:33:18.220Z,88.90
2019-06-26T06:35:44.635Z,94.35
2019-06-26T06:38:10.978Z,92.37
2019-06-26T06:40:39.584Z,89.77
2019-06-26T06:43:07.236Z,107.47
2019-06-26T06:45:35.654Z,99.72
2019-06-26T06:48:02.161Z,100.78
2019-06-26T06:50:29.719Z,102.15
2019-06-26T06:52:57.629Z,107.78
2019-06-26T06:55:45.652Z,108.57
2019-06-26T06:58:11.994Z,97.60
2019-06-26T07:00:38.462Z,104.80
2019-06-26T07:03:04.801Z,110.95
2019-06-26T07:05:31.069Z,104.25
2019-06-26T07:07:58.884Z,104.27
2019-06-26T07:10:25.266Z,98.87
2019-06-26T07:12:51.561Z,100.97
2019-06-26T07:15:20.050Z,101.40
2019-06-26T07:17:46.283Z,97.92
2019-06-26T07:20:13.918Z,115.00
2019-06-26T07:22:42.083Z,108.83
2019-06-26T07:25:08.776Z,101.65
2019-06-26T07:27:38.716Z,100.72
2019-06-26T07:30:05.963Z,101.82
2019-06-26T07:32:32.222Z,108.72
2019-06-26T07:34:58.634Z,110.80
2019-06-26T07:37:26.246Z,110.97
2019-06-26T07:39:52.480Z,103.53
2019-06-26T07:42:18.866Z,101.47
2019-06-26T07:44:45.125Z,95.53
2019-06-26T07:47:22.317Z,89.45
2019-06-26T07:49:39.556Z,77.97
2019-06-26T07:52:05.787Z,81.20
2019-06-26T07:54:34.191Z,69.70
2019-06-26T07:57:02.307Z,74.65
2019-06-26T07:59:28.561Z,64.55
2019-06-26T08:01:54.835Z,65.67
2019-06-26T08:04:21.107Z,63.30
2019-06-26T08:06:47.361Z,61.60
2019-06-26T08:09:13.622Z,62.38
2019-06-26T08:11:39.928Z,74.90
2019-06-26T08:14:06.179Z,76.12
2019-06-26T08:16:34.449Z,65.75
2019-06-26T08:19:00.599Z,66.62
2019-06-26T08:21:26.959Z,77.78
2019-06-26T08:23:53.199Z,81.70
2019-06-26T08:26:21.364Z,79.10
2019-06-26T08:28:47.606Z,78.12
2019-06-26T08:31:15.559Z,70.85
2019-06-26T08:33:41.824Z,82.67
2019-06-26T08:36:08.091Z,101.92
2019-06-26T08:38:34.340Z,90.15
2019-06-26T08:41:00.588Z,90.32
2019-06-26T08:43:30.899Z,81.92
2019-06-26T08:45:55.112Z,83.47
2019-06-26T08:48:38.398Z,80.25
2019-06-26T08:50:49.559Z,84.05
2019-06-26T08:53:15.815Z,84.60
2019-06-26T08:55:42.070Z,90.95
2019-06-26T08:58:08.332Z,79.62
2019-06-26T09:00:36.601Z,86.17
2019-06-26T09:03:03.546Z,86.85
2019-06-26T09:05:43.572Z,86.75
2019-06-26T09:07:58.111Z,82.85
2019-06-26T09:10:24.502Z,86.80
2019-06-26T09:12:50.904Z,93.42
2019-06-26T09:15:17.246Z,84.60
2019-06-26T09:17:43.586Z,80.15
2019-06-26T09:20:10.555Z,76.72
2019-06-26T09:22:36.908Z,80.45
2019-06-26T09:25:20.236Z,80.32
2019-06-26T09:27:33.400Z,71.97
2019-06-26T09:29:59.684Z,78.65
2019-06-26T09:32:25.915Z,67.60
2019-06-26T09:34:52.195Z,77.70
2019-06-26T09:37:18.435Z,75.28
2019-06-26T09:39:44.774Z,78.20
2019-06-26T09:42:11.027Z,67.22
2019-06-26T09:44:37.281Z,78.02
2019-06-26T09:47:03.650Z,80.10
2019-06-26T09:49:29.927Z,63.85
2019-06-26T09:51:56.347Z,70.05
2019-06-26T09:54:22.614Z,73.65
2019-06-26T09:56:49.376Z,71.50
2019-06-26T09:59:15.624Z,66.12
2019-06-26T10:01:42.027Z,60.50
2019-06-26T10:04:10.120Z,63.00
2019-06-26T10:06:36.495Z,57.43
2019-06-26T10:09:06.264Z,57.25
2019-06-26T10:11:32.514Z,56.10
2019-06-26T10:13:58.807Z,56.73
2019-06-26T10:16:25.038Z,50.23
2019-06-26T10:19:05.545Z,48.25
2019-06-26T10:21:23.419Z,38.80
2019-06-26T10:23:47.653Z,37.38
2019-06-26T10:26:17.294Z,33.78
2019-06-26T10:28:45.875Z,31.15
2019-06-26T10:31:12.355Z,31.48
2019-06-26T10:33:40.300Z,32.83
2019-06-26T10:36:06.579Z,28.83
2019-06-26T10:38:32.856Z,27.93
2019-06-26T10:40:59.109Z,28.60
2019-06-26T10:43:25.378Z,27.80
2019-06-26T10:45:51.640Z,28.32
2019-06-26T10:48:17.910Z,33.02
2019-06-26T10:50:51.023Z,30.08
2019-06-26T10:53:12.211Z,29.05
2019-06-26T10:55:38.492Z,28.45
2019-06-26T10:58:05.078Z,27.02
2019-06-26T11:00:34.303Z,29.85
2019-06-26T11:05:29.400Z,27.82
2019-06-26T11:07:55.807Z,27.07
2019-06-26T11:10:22.272Z,26.60
2019-06-26T11:12:49.166Z,28.83
2019-06-26T11:15:15.920Z,25.72
2019-06-26T11:17:42.292Z,27.02
2019-06-26T11:20:09.327Z,23.85
2019-06-26T11:22:35.656Z,27.67
2019-06-26T11:25:02.273Z,30.45
2019-06-26T11:27:28.680Z,28.90
2019-06-26T11:29:54.974Z,28.57
2019-06-26T11:32:22.879Z,29.67
2019-06-26T11:34:49.143Z,27.30
2019-06-26T11:37:15.371Z,28.30
2019-06-26T11:39:41.633Z,28.75
2019-06-26T11:42:08.165Z,28.80
2019-06-26T11:44:34.424Z,27.30
2019-06-26T11:47:00.678Z,30.40
2019-06-26T11:49:26.938Z,28.30
2019-06-26T11:51:53.175Z,27.70
2019-06-26T11:54:19.447Z,25.17
2019-06-26T11:56:45.701Z,27.82
2019-06-26T11:59:11.984Z,26.52
2019-06-26T12:01:38.210Z,26.17
2019-06-26T12:04:04.494Z,27.25
2019-06-26T12:06:30.728Z,25.80
2019-06-26T12:08:57.012Z,29.80
2019-06-26T12:11:23.264Z,27.07
2019-06-26T12:13:49.898Z,26.70
2019-06-26T12:16:16.151Z,28.47
2019-06-26T12:18:42.382Z,27.65
2019-06-26T12:21:08.650Z,29.55
2019-06-26T12:23:34.898Z,28.02
2019-06-26T12:26:01.176Z,27.42
2019-06-26T12:28:27.403Z,28.77
2019-06-26T12:30:53.653Z,30.35
2019-06-26T12:33:19.919Z,26.48
2019-06-26T12:35:46.244Z,27.42
2019-06-26T12:38:15.827Z,26.45
2019-06-26T12:40:42.088Z,26.07
2019-06-26T12:43:08.349Z,24.18
2019-06-26T12:45:34.666Z,24.92
2019-06-26T12:48:01.318Z,25.08
2019-06-26T12:50:35.165Z,25.20
2019-06-26T12:52:55.824Z,23.95
2019-06-26T12:55:22.051Z,24.32
2019-06-26T12:57:48.315Z,22.87
2019-06-26T13:00:14.980Z,29.80
2019-06-26T13:02:41.477Z,23.57
2019-06-26T13:05:09.500Z,22.82
2019-06-26T13:07:35.740Z,22.30
2019-06-26T13:10:07.352Z,21.52
2019-06-26T13:12:32.863Z,23.35
2019-06-26T13:14:59.172Z,21.52
2019-06-26T13:17:25.523Z,22.62
2019-06-26T13:19:57.879Z,20.65
2019-06-26T13:22:24.231Z,20.97
2019-06-26T13:24:50.581Z,20.37
2019-06-26T13:27:16.845Z,18.60
2019-06-26T13:29:43.207Z,21.25
2019-06-26T13:32:09.505Z,19.95
2019-06-26T13:34:35.848Z,18.52
2019-06-26T13:37:05.249Z,16.55
2019-06-26T13:39:31.451Z,17.52
2019-06-26T13:41:57.721Z,17.77
2019-06-26T13:44:24.066Z,17.95
2019-06-26T13:46:50.402Z,17.40
2019-06-26T13:49:16.797Z,18.82
2019-06-26T13:51:43.023Z,18.90
2019-06-26T13:54:09.256Z,18.17
2019-06-26T13:56:35.587Z,19.27
2019-06-26T13:59:01.828Z,21.55
2019-06-26T14:01:28.128Z,21.23
2019-06-26T14:03:54.467Z,21.62
2019-06-26T14:06:22.758Z,21.00
2019-06-26T14:08:49.032Z,19.12
2019-06-26T14:11:15.353Z,23.22
2019-06-26T14:13:42.117Z,20.45
2019-06-26T14:16:08.799Z,24.67
2019-06-26T14:18:35.087Z,18.57
2019-06-26T14:21:01.438Z,18.95
2019-06-26T14:23:30.483Z,18.62
2019-06-26T14:25:56.831Z,22.40
2019-06-26T14:28:23.095Z,20.40
2019-06-26T14:30:49.319Z,19.40
2019-06-26T14:33:15.618Z,17.73
2019-06-26T14:35:41.870Z,19.42
2019-06-26T14:38:08.247Z,18.30
2019-06-26T14:40:34.590Z,22.48
2019-06-26T14:43:01.629Z,21.70
2019-06-26T14:45:27.871Z,23.00
2019-06-26T14:47:55.364Z,23.73
2019-06-26T14:50:21.827Z,23.12
2019-06-26T14:52:48.117Z,21.90
2019-06-26T14:55:14.575Z,20.95
2019-06-26T14:57:40.867Z,23.18
2019-06-26T15:00:08.349Z,22.93
2019-06-26T15:02:34.857Z,21.00
2019-06-26T15:05:01.104Z,22.82
2019-06-26T15:07:29.207Z,22.67
2019-06-26T15:09:56.175Z,22.58
2019-06-26T15:12:23.222Z,23.27
2019-06-26T15:14:49.494Z,21.52
2019-06-26T15:17:15.812Z,21.93
2019-06-26T15:19:42.228Z,23.32
2019-06-26T15:22:08.908Z,22.77
2019-06-26T15:24:35.156Z,23.40
2019-06-26T15:27:01.430Z,25.23
2019-06-26T15:29:27.694Z,24.20
2019-06-26T15:31:54.059Z,25.62
2019-06-26T15:34:20.359Z,25.85
2019-06-26T15:36:48.521Z,22.75
2019-06-26T15:39:15.016Z,25.43
2019-06-26T15:41:42.044Z,24.37
2019-06-26T15:44:08.509Z,25.57
2019-06-26T15:46:34.805Z,25.82
2019-06-26T15:49:01.096Z,27.35
2019-06-26T15:51:27.459Z,24.02
2019-06-26T15:53:53.732Z,21.90
2019-06-26T15:56:20.033Z,30.08
2019-06-26T15:58:46.275Z,30.90
2019-06-26T16:01:12.564Z,27.85
2019-06-26T16:03:39.007Z,24.92
2019-06-26T16:06:05.392Z,26.73
2019-06-26T16:08:31.742Z,23.65
2019-06-26T16:10:58.221Z,26.15
2019-06-26T16:13:24.557Z,27.48
2019-06-26T16:15:51.008Z,24.65
2019-06-26T16:18:25.268Z,23.80
2019-06-26T16:20:51.602Z,23.42
2019-06-26T16:23:19.571Z,21.37
2019-06-26T16:25:46.036Z,23.55
2019-06-26T16:28:12.292Z,22.52
2019-06-26T16:30:38.652Z,21.97
2019-06-26T16:33:04.910Z,26.42
2019-06-26T16:35:31.179Z,23.73
2019-06-26T16:37:58.752Z,24.05
2019-06-26T16:40:25.048Z,28.75
2019-06-26T16:42:51.399Z,23.62
2019-06-26T16:45:18.445Z,29.15
2019-06-26T16:47:44.823Z,29.55
2019-06-26T16:50:11.398Z,26.37
2019-06-26T16:52:48.595Z,26.75
2019-06-26T16:55:06.587Z,21.12
2019-06-26T16:57:32.868Z,25.17
2019-06-26T17:00:08.919Z,22.70
2019-06-26T17:02:27.192Z,25.72
2019-06-26T17:04:53.461Z,25.52
2019-06-26T17:07:19.834Z,25.82
2019-06-26T17:09:46.394Z,26.62
2019-06-26T17:12:13.040Z,23.42
2019-06-26T17:14:39.376Z,22.32
2019-06-26T17:17:06.026Z,30.08
2019-06-26T17:19:32.461Z,35.03
2019-06-26T17:21:58.695Z,26.48
2019-06-26T17:24:28.811Z,23.12
2019-06-26T17:26:55.167Z,27.35
2019-06-26T17:29:21.600Z,24.55
2019-06-26T17:31:49.776Z,29.85
2019-06-26T17:34:16.495Z,22.98
2019-06-26T17:36:42.963Z,32.67
2019-06-26T17:39:09.431Z,24.80
2019-06-26T17:41:37.752Z,29.90
2019-06-26T17:44:04.227Z,33.70
2019-06-26T17:46:30.612Z,25.02
2019-06-26T17:48:56.972Z,24.72
2019-06-26T17:51:23.463Z,24.70
2019-06-26T17:53:49.871Z,24.40
2019-06-26T17:56:16.247Z,31.70
2019-06-26T17:58:42.492Z,30.85
2019-06-26T18:01:08.803Z,30.62
2019-06-26T18:03:35.169Z,26.15
2019-06-26T18:06:01.783Z,30.43
2019-06-26T18:08:31.867Z,28.85
2019-06-26T18:10:58.244Z,26.25
2019-06-26T18:13:28.292Z,23.95
2019-06-26T18:15:54.602Z,21.77
2019-06-26T18:18:21.242Z,21.62
2019-06-26T18:20:48.158Z,21.35
2019-06-26T18:23:16.459Z,15.23
2019-06-26T18:25:43.344Z,11.28
2019-06-26T18:28:11.568Z,9.28
2019-06-26T18:30:38.384Z,11.35
2019-06-26T18:33:05.011Z,9.33
2019-06-26T18:35:31.636Z,8.15
2019-06-26T18:37:59.306Z,8.18
2019-06-26T18:40:26.073Z,8.18
2019-06-26T18:42:54.567Z,10.82
2019-06-26T18:45:21.538Z,9.13
2019-06-26T18:47:50.077Z,12.18
2019-06-26T18:50:18.771Z,10.93
2019-06-26T18:52:46.381Z,9.50
2019-06-26T18:55:13.131Z,10.88
2019-06-26T18:57:39.719Z,14.58
2019-06-26T19:00:07.307Z,10.48
2019-06-26T19:02:33.763Z,10.68
2019-06-26T19:05:00.387Z,11.12
2019-06-26T19:07:27.086Z,9.45
2019-06-26T19:09:53.344Z,8.78
2019-06-26T19:12:19.748Z,10.85
2019-06-26T19:14:48.389Z,10.48
2019-06-26T19:17:17.207Z,8.60
2019-06-26T19:19:43.517Z,8.53
2019-06-26T19:22:11.460Z,12.13
2019-06-26T19:24:37.987Z,13.80
2019-06-26T19:27:07.572Z,19.65
2019-06-26T19:29:32.712Z,13.13
2019-06-26T19:31:59.259Z,18.23
2019-06-26T19:34:25.683Z,20.72
2019-06-26T19:36:52.103Z,17.45
2019-06-26T19:39:21.190Z,17.52
2019-06-26T19:41:48.036Z,19.52
2019-06-26T19:44:15.104Z,14.53
2019-06-26T19:46:42.956Z,17.10
2019-06-26T19:49:09.533Z,21.10
2019-06-26T19:51:36.213Z,11.57
2019-06-26T19:54:03.120Z,19.87
2019-06-26T19:56:30.270Z,12.95
2019-06-26T19:58:57.219Z,20.88
2019-06-26T20:01:24.625Z,25.55
2019-06-26T20:03:51.335Z,13.85
2019-06-26T20:06:18.160Z,20.35
2019-06-26T20:08:53.419Z,17.98
2019-06-26T20:11:13.687Z,17.35
2019-06-26T20:13:41.999Z,13.20
2019-06-26T20:16:08.636Z,22.73
2019-06-26T20:18:35.265Z,16.12
2019-06-26T20:21:01.775Z,9.90
2019-06-26T20:23:30.018Z,11.75
2019-06-26T20:25:56.408Z,15.68
2019-06-26T20:28:25.011Z,11.25
2019-06-26T20:30:51.463Z,6.07
2019-06-26T20:33:19.841Z,9.88
2019-06-26T20:35:46.530Z,9.60
2019-06-26T20:38:16.692Z,9.23
2019-06-26T20:40:46.147Z,7.62
2019-06-26T20:43:12.995Z,6.08
2019-06-26T20:45:39.231Z,6.47
2019-06-26T20:48:07.080Z,7.03
2019-06-26T20:50:33.705Z,5.35
2019-06-26T20:53:00.036Z,3.83
2019-06-26T20:55:26.612Z,5.45
2019-06-26T20:57:53.233Z,9.93
2019-06-26T21:00:22.497Z,4.15
2019-06-26T21:02:47.832Z,3.37
2019-06-26T21:05:14.549Z,8.00
2019-06-26T21:07:41.161Z,6.65
2019-06-26T21:10:08.683Z,3.87
2019-06-26T21:12:38.474Z,5.33
2019-06-26T21:15:07.184Z,2.75
2019-06-26T21:17:35.937Z,3.07
2019-06-26T21:20:05.511Z,3.43
2019-06-26T21:24:58.343Z,6.40
2019-06-26T21:27:24.881Z,7.55
2019-06-26T21:29:51.340Z,5.28
2019-06-26T21:32:17.718Z,5.45
2019-06-26T21:34:45.703Z,5.08
2019-06-26T21:37:12.134Z,3.77
2019-06-26T21:39:40.156Z,8.60
2019-06-26T21:42:06.622Z,4.22
2019-06-26T21:44:33.000Z,6.08
2019-06-26T21:46:59.286Z,4.85
2019-06-26T21:49:25.492Z,3.75
2019-06-26T21:51:51.865Z,3.08
2019-06-26T21:54:18.083Z,5.47
2019-06-26T21:56:44.380Z,4.10
2019-06-26T21:59:10.712Z,4.47
2019-06-26T22:01:37.088Z,3.08
2019-06-26T22:04:05.657Z,8.35
2019-06-26T22:06:31.998Z,5.40
2019-06-26T22:08:58.287Z,5.42
2019-06-26T22:11:24.625Z,5.75
2019-06-26T22:13:50.951Z,3.80
2019-06-26T22:16:17.241Z,8.00
2019-06-26T22:18:43.581Z,6.45
2019-06-26T22:21:09.847Z,4.83
2019-06-26T22:23:36.092Z,10.50
2019-06-26T22:26:03.568Z,8.40
2019-06-26T22:28:29.858Z,4.40
2019-06-26T22:30:56.128Z,3.45
2019-06-26T22:33:22.449Z,5.25
2019-06-26T22:35:49.035Z,5.42
2019-06-26T22:38:15.271Z,3.50
2019-06-26T22:40:41.511Z,6.40
2019-06-26T22:43:07.807Z,7.75
2019-06-26T22:45:34.065Z,7.80
2019-06-26T22:48:00.333Z,5.25
2019-06-26T22:50:26.555Z,8.53
2019-06-26T22:52:52.823Z,9.30
2019-06-26T22:55:19.131Z,8.15
2019-06-26T22:57:45.429Z,6.42
2019-06-26T23:00:15.100Z,10.13
2019-06-26T23:05:08.153Z,11.38
2019-06-26T23:07:34.575Z,8.35
2019-06-26T23:10:01.154Z,12.82
2019-06-26T23:12:27.753Z,10.35
2019-06-26T23:14:54.412Z,6.70
2019-06-26T23:17:21.078Z,10.43
2019-06-26T23:19:47.695Z,8.98
2019-06-26T23:22:14.308Z,7.65
2019-06-26T23:24:41.492Z,9.48
2019-06-26T23:27:08.105Z,6.15
2019-06-26T23:29:34.423Z,6.83
2019-06-26T23:32:03.415Z,7.10
2019-06-26T23:34:29.973Z,8.15
2019-06-26T23:36:56.642Z,8.13
2019-06-26T23:39:23.227Z,8.13
2019-06-26T23:41:49.484Z,7.67
2019-06-26T23:44:15.823Z,10.18
2019-06-26T23:46:42.353Z,10.38
2019-06-26T23:49:08.988Z,12.25
2019-06-26T23:51:35.601Z,5.35
2019-06-26T23:54:02.369Z,5.12
2019-06-26T23:56:39.850Z,4.97
2019-06-26T23:58:57.184Z,9.60
